Stations météo

réclame
Mon MeteoGroup
Edinburgh, Grande-Bretagne (3160): Température de l'air & dewpoint: 01.08.2020 05:00:00 - 07.08.2020 05:00:00 (BST)Edinburgh, Grande-Bretagne (3160): Vitesse du vent: 01.08.2020 05:00:00 - 07.08.2020 05:00:00 (BST)Edinburgh, Grande-Bretagne (3160): Direction du vent: 01.08.2020 05:00:00 - 07.08.2020 05:00:00 (BST)Edinburgh, Grande-Bretagne (3160): visibility: 01.08.2020 05:00:00 - 07.08.2020 05:00:00 (BST)
Date & Time tt [°C] td [°C] ff [km/h] ff [knt] dd vv [km]
07.08.2020 05:00:00 16,0 14,0 5 3 - 10
07.08.2020 04:00:00 16,0 13,0 9 5 SSW 10
07.08.2020 03:00:00 16,0 14,0 5 3 W 10
07.08.2020 02:00:00 15,0 13,0 9 5 WSW 10
07.08.2020 01:00:00 14,0 13,0 15 8 SW 10
07.08.2020 00:00:00 16,0 13,0 15 8 SSW 10
06.08.2020 23:00:00 17,0 14,0 18 10 SW 10
06.08.2020 22:00:00 19,0 15,0 16 9 SSW 10
06.08.2020 21:00:00 19,0 15,0 9 5 SSW 10
06.08.2020 20:00:00 20,0 15,0 18 10 S 10
06.08.2020 19:00:00 18,0 15,0 11 6 NE 10
06.08.2020 18:00:00 18,0 14,0 11 6 NNE 10
06.08.2020 17:00:00 22,0 14,0 8 4 S 10
06.08.2020 16:00:00 20,0 15,0 11 6 ENE 10
06.08.2020 15:00:00 20,0 15,0 11 6 ENE 10
06.08.2020 14:00:00 19,0 14,0 15 8 ENE 10
06.08.2020 13:00:00 20,0 15,0 11 6 NE 10
06.08.2020 12:00:00 20,0 14,0 5 3 - 10
06.08.2020 11:00:00 18,0 13,0 5 3 - 10
06.08.2020 10:00:00 18,0 13,0 8 4 SW 10
06.08.2020 09:00:00 16,0 13,0 9 5 WSW 10
06.08.2020 08:00:00 14,0 13,0 8 4 W 10
06.08.2020 07:00:00 12,0 12,0 8 4 W 10
06.08.2020 06:00:00 11,0 10,0 4 2 - 10
06.08.2020 05:00:00 11,0 11,0 11 6 WSW 10
06.08.2020 04:00:00 13,0 12,0 8 4 W 10
06.08.2020 03:00:00 12,0 12,0 11 6 WSW 10
06.08.2020 02:00:00 13,0 12,0 8 4 WSW 10
06.08.2020 01:00:00 15,0 15,0 9 5 WSW 10
06.08.2020 00:00:00 16,0 15,0 9 5 W 10
05.08.2020 23:00:00 16,0 15,0 11 6 WSW 10
05.08.2020 22:00:00 16,0 16,0 11 6 WSW 10
05.08.2020 21:00:00 17,0 16,0 13 7 WSW 10
05.08.2020 20:00:00 19,0 16,0 13 7 SW 10
05.08.2020 19:00:00 18,0 16,0 13 7 WSW 10
05.08.2020 18:00:00 19,0 16,0 21 11 SW 10
05.08.2020 17:00:00 17,0 17,0 8 4 - 10
05.08.2020 16:00:00 17,0 16,0 5 3 - 2,5
05.08.2020 15:00:00 17,0 16,0 2 1 - 7
05.08.2020 14:00:00 17,0 16,0 8 4 W 3,8
05.08.2020 13:00:00 18,0 15,0 13 7 SSW 10
05.08.2020 12:00:00 17,0 14,0 8 4 W 10
05.08.2020 11:00:00 17,0 14,0 11 6 WSW 10
05.08.2020 10:00:00 17,0 14,0 11 6 WSW 10
05.08.2020 09:00:00 16,0 14,0 16 9 SW 10
05.08.2020 08:00:00 15,0 13,0 9 5 WSW 10
05.08.2020 07:00:00 15,0 13,0 13 7 WSW 10
05.08.2020 06:00:00 15,0 13,0 15 8 WSW 10
05.08.2020 05:00:00 14,0 13,0 21 11 SW 10
05.08.2020 04:00:00 15,0 13,0 18 10 WSW 10
05.08.2020 03:00:00 15,0 13,0 18 10 WSW 10
05.08.2020 02:00:00 15,0 14,0 18 10 WSW 6
05.08.2020 01:00:00 15,0 14,0 24 13 W 4,8
05.08.2020 00:00:00 18,0 16,0 29 16 SW 10
04.08.2020 23:00:00 17,0 16,0 28 15 SW 10
04.08.2020 22:00:00 17,0 16,0 26 14 SW 10
04.08.2020 21:00:00 17,0 16,0 26 14 SSW 4,8
04.08.2020 20:00:00 17,0 16,0 31 17 SW 3,9
04.08.2020 19:00:00 17,0 16,0 29 16 SW 6
04.08.2020 18:00:00 17,0 16,0 34 18 SW 5
04.08.2020 17:00:00 17,0 16,0 34 18 SSW 10
04.08.2020 16:00:00 17,0 15,0 35 19 SSW 10
04.08.2020 15:00:00 16,0 15,0 35 19 SSW 7
04.08.2020 14:00:00 16,0 14,0 24 13 SSW 10
04.08.2020 13:00:00 15,0 13,0 31 17 SSW 10
04.08.2020 12:00:00 15,0 13,0 26 14 SSW 10
04.08.2020 11:00:00 14,0 12,0 15 8 SSW 10
04.08.2020 10:00:00 13,0 12,0 8 4 ENE 10
04.08.2020 09:00:00 13,0 12,0 8 4 ESE 10
04.08.2020 08:00:00 13,0 11,0 9 5 SSW 10
04.08.2020 07:00:00 13,0 10,0 8 4 S 10
04.08.2020 06:00:00 13,0 9,0 13 7 SW 10
04.08.2020 05:00:00 11,0 9,0 9 5 WSW 10
04.08.2020 04:00:00 11,0 8,0 5 3 W 10
04.08.2020 03:00:00 12,0 8,0 9 5 WSW 10
04.08.2020 02:00:00 12,0 9,0 16 9 SW 10
04.08.2020 01:00:00 11,0 9,0 9 5 SW 10
04.08.2020 00:00:00 11,0 8,0 13 7 WSW 10
03.08.2020 23:00:00 11,0 9,0 11 6 WSW 10
03.08.2020 22:00:00 14,0 9,0 9 5 W 10
03.08.2020 21:00:00 14,0 8,0 13 7 WSW 10
03.08.2020 20:00:00 14,0 9,0 15 8 WSW 10
03.08.2020 19:00:00 14,0 8,0 16 9 W 10
03.08.2020 18:00:00 16,0 8,0 21 11 WSW 10
03.08.2020 17:00:00 16,0 8,0 22 12 W 10
03.08.2020 16:00:00 15,0 9,0 18 10 W 10
03.08.2020 15:00:00 15,0 9,0 13 7 WNW 10
03.08.2020 14:00:00 15,0 9,0 22 12 WSW 10
03.08.2020 13:00:00 14,0 9,0 18 10 W 10
03.08.2020 12:00:00 15,0 8,0 15 8 W 10
03.08.2020 11:00:00 15,0 8,0 13 7 W 10
03.08.2020 10:00:00 14,0 8,0 18 10 W 10
03.08.2020 09:00:00 14,0 9,0 16 9 WSW 10
03.08.2020 08:00:00 12,0 10,0 13 7 WSW 10
03.08.2020 07:00:00 9,0 8,0 11 6 WSW 10
03.08.2020 06:00:00 7,0 6,0 9 5 WSW 10
03.08.2020 05:00:00 7,0 6,0 13 7 WSW 10
03.08.2020 04:00:00 8,0 6,0 8 4 W 10
03.08.2020 03:00:00 8,0 7,0 11 6 WSW 10
03.08.2020 02:00:00 7,0 6,0 11 6 WSW 10
03.08.2020 01:00:00 9,0 7,0 9 5 WSW 10
03.08.2020 00:00:00 9,0 7,0 9 5 W 10
02.08.2020 23:00:00 8,0 6,0 9 5 WSW 10
02.08.2020 22:00:00 12,0 7,0 11 6 WSW 10
02.08.2020 21:00:00 13,0 8,0 11 6 WSW 10
02.08.2020 20:00:00 15,0 8,0 15 8 W 10
02.08.2020 19:00:00 16,0 9,0 18 10 W 10
02.08.2020 18:00:00 17,0 8,0 18 10 W 10
02.08.2020 17:00:00 16,0 9,0 21 11 W 10
02.08.2020 16:00:00 17,0 9,0 16 9 W 10
02.08.2020 15:00:00 16,0 9,0 18 10 W 10
02.08.2020 14:00:00 17,0 9,0 21 11 W 10
02.08.2020 13:00:00 17,0 9,0 16 9 W 10
02.08.2020 12:00:00 16,0 10,0 16 9 W 10
02.08.2020 11:00:00 17,0 11,0 15 8 W 10
02.08.2020 10:00:00 15,0 12,0 15 8 WSW 10
02.08.2020 09:00:00 14,0 12,0 15 8 WSW 10
02.08.2020 08:00:00 13,0 12,0 15 8 WSW 10
02.08.2020 07:00:00 12,0 11,0 9 5 WSW 10
02.08.2020 06:00:00 11,0 11,0 9 5 WSW 10
02.08.2020 05:00:00 12,0 11,0 11 6 WSW 10
02.08.2020 04:00:00 12,0 11,0 9 5 WSW 10
02.08.2020 03:00:00 12,0 12,0 11 6 WSW 10
02.08.2020 02:00:00 12,0 11,0 9 5 WSW 10
02.08.2020 01:00:00 13,0 11,0 8 4 WSW 10
02.08.2020 00:00:00 13,0 11,0 13 7 SW 10
01.08.2020 23:00:00 14,0 10,0 13 7 WSW 10
01.08.2020 22:00:00 14,0 10,0 15 8 WSW 10
01.08.2020 21:00:00 15,0 11,0 9 5 W 10
01.08.2020 20:00:00 16,0 10,0 11 6 W 10
01.08.2020 19:00:00 17,0 10,0 15 8 W 10
01.08.2020 18:00:00 17,0 10,0 16 9 W 10
01.08.2020 17:00:00 17,0 10,0 16 9 W 10
01.08.2020 16:00:00 18,0 10,0 21 11 W 10
01.08.2020 15:00:00 18,0 11,0 24 13 WSW 10
01.08.2020 14:00:00 18,0 10,0 18 10 W 10
01.08.2020 13:00:00 18,0 11,0 21 11 WSW 10
01.08.2020 12:00:00 17,0 10,0 18 10 W 10
01.08.2020 11:00:00 16,0 10,0 21 11 W 10
01.08.2020 10:00:00 16,0 12,0 18 10 W 10
01.08.2020 09:00:00 15,0 12,0 21 11 WSW 10
01.08.2020 08:00:00 15,0 13,0 21 11 WSW 10
01.08.2020 07:00:00 15,0 14,0 15 8 WSW 10
01.08.2020 06:00:00 16,0 14,0 11 6 W 10
01.08.2020 05:00:00 16,0 15,0 8 4 WSW 10

tt = Température de l'air
td = dewpoint
ff = Vitesse du vent
dd = Direction du vent
vv = visibility

stations d'obs. à proximité